sensor_id;sensor_type;location;lat;lon;timestamp;temperature;humidity
27306;DHT22;14792;50.886;6.468;2022-08-21T00:00:44;15.60;99.90
27306;DHT22;14792;50.886;6.468;2022-08-21T00:03:46;15.60;99.90
27306;DHT22;14792;50.886;6.468;2022-08-21T00:06:47;15.50;99.90
27306;DHT22;14792;50.886;6.468;2022-08-21T00:09:49;15.50;99.90
27306;DHT22;14792;50.886;6.468;2022-08-21T00:12:50;15.50;99.90
27306;DHT22;14792;50.886;6.468;2022-08-21T00:15:52;15.50;99.90
27306;DHT22;14792;50.886;6.468;2022-08-21T00:18:54;15.50;99.90
27306;DHT22;14792;50.886;6.468;2022-08-21T00:21:55;15.40;99.90
27306;DHT22;14792;50.886;6.468;2022-08-21T00:24:57;15.40;99.90
27306;DHT22;14792;50.886;6.468;2022-08-21T00:27:58;15.20;99.90
27306;DHT22;14792;50.886;6.468;2022-08-21T00:31:00;15.00;99.90
27306;DHT22;14792;50.886;6.468;2022-08-21T00:34:02;14.80;99.90
27306;DHT22;14792;50.886;6.468;2022-08-21T00:37:03;14.70;99.90
27306;DHT22;14792;50.886;6.468;2022-08-21T00:40:05;14.60;99.90
27306;DHT22;14792;50.886;6.468;2022-08-21T00:43:07;14.60;99.90
27306;DHT22;14792;50.886;6.468;2022-08-21T00:46:08;14.70;99.90
27306;DHT22;14792;50.886;6.468;2022-08-21T00:49:10;14.60;99.90
27306;DHT22;14792;50.886;6.468;2022-08-21T00:52:13;14.60;99.90
27306;DHT22;14792;50.886;6.468;2022-08-21T00:55:13;14.70;99.90
27306;DHT22;14792;50.886;6.468;2022-08-21T00:58:15;14.70;99.90
27306;DHT22;14792;50.886;6.468;2022-08-21T01:01:16;14.70;99.90
27306;DHT22;14792;50.886;6.468;2022-08-21T01:04:17;14.80;99.90
27306;DHT22;14792;50.886;6.468;2022-08-21T01:07:19;14.80;99.90
27306;DHT22;14792;50.886;6.468;2022-08-21T01:10:21;14.80;99.90
27306;DHT22;14792;50.886;6.468;2022-08-21T01:13:22;14.80;99.90
27306;DHT22;14792;50.886;6.468;2022-08-21T01:16:24;14.80;99.90
27306;DHT22;14792;50.886;6.468;2022-08-21T01:19:26;14.70;99.90
27306;DHT22;14792;50.886;6.468;2022-08-21T01:22:27;14.70;99.90
27306;DHT22;14792;50.886;6.468;2022-08-21T01:25:29;14.70;99.90
27306;DHT22;14792;50.886;6.468;2022-08-21T01:28:31;14.70;99.90
27306;DHT22;14792;50.886;6.468;2022-08-21T01:31:32;14.70;99.90
27306;DHT22;14792;50.886;6.468;2022-08-21T01:34:34;14.70;99.90
27306;DHT22;14792;50.886;6.468;2022-08-21T01:37:35;14.70;99.90
27306;DHT22;14792;50.886;6.468;2022-08-21T01:40:36;14.70;99.90
27306;DHT22;14792;50.886;6.468;2022-08-21T01:43:38;14.70;99.90
27306;DHT22;14792;50.886;6.468;2022-08-21T01:46:40;14.70;99.90
27306;DHT22;14792;50.886;6.468;2022-08-21T01:49:41;14.70;99.90
27306;DHT22;14792;50.886;6.468;2022-08-21T01:52:43;14.70;99.90
27306;DHT22;14792;50.886;6.468;2022-08-21T01:55:44;14.70;99.90
27306;DHT22;14792;50.886;6.468;2022-08-21T01:58:46;14.70;99.90
27306;DHT22;14792;50.886;6.468;2022-08-21T02:01:48;14.60;99.90
27306;DHT22;14792;50.886;6.468;2022-08-21T02:04:49;14.60;99.90
27306;DHT22;14792;50.886;6.468;2022-08-21T02:07:54;14.60;99.90
27306;DHT22;14792;50.886;6.468;2022-08-21T02:10:52;14.50;99.90
27306;DHT22;14792;50.886;6.468;2022-08-21T02:13:54;14.50;99.90
27306;DHT22;14792;50.886;6.468;2022-08-21T02:16:56;14.50;99.90
27306;DHT22;14792;50.886;6.468;2022-08-21T02:19:57;14.50;99.90
27306;DHT22;14792;50.886;6.468;2022-08-21T02:22:59;14.40;99.90
27306;DHT22;14792;50.886;6.468;2022-08-21T02:26:01;14.50;99.90
27306;DHT22;14792;50.886;6.468;2022-08-21T02:29:03;14.50;99.90
27306;DHT22;14792;50.886;6.468;2022-08-21T02:32:03;14.40;99.90
27306;DHT22;14792;50.886;6.468;2022-08-21T02:35:05;14.40;99.90
27306;DHT22;14792;50.886;6.468;2022-08-21T02:38:09;14.40;99.90
27306;DHT22;14792;50.886;6.468;2022-08-21T02:41:10;14.40;99.90
27306;DHT22;14792;50.886;6.468;2022-08-21T02:44:10;14.30;99.90
27306;DHT22;14792;50.886;6.468;2022-08-21T02:47:11;14.30;99.90
27306;DHT22;14792;50.886;6.468;2022-08-21T02:50:13;14.30;99.90
27306;DHT22;14792;50.886;6.468;2022-08-21T02:53:15;14.30;99.90
27306;DHT22;14792;50.886;6.468;2022-08-21T02:56:17;14.30;99.90
27306;DHT22;14792;50.886;6.468;2022-08-21T02:59:18;14.20;99.90
27306;DHT22;14792;50.886;6.468;2022-08-21T03:02:19;14.20;99.90
27306;DHT22;14792;50.886;6.468;2022-08-21T03:05:22;14.20;99.90
27306;DHT22;14792;50.886;6.468;2022-08-21T03:08:23;14.20;99.90
27306;DHT22;14792;50.886;6.468;2022-08-21T03:11:24;14.20;99.90
27306;DHT22;14792;50.886;6.468;2022-08-21T03:14:26;14.20;99.90
27306;DHT22;14792;50.886;6.468;2022-08-21T03:17:27;14.10;99.90
27306;DHT22;14792;50.886;6.468;2022-08-21T03:20:29;14.00;99.90
27306;DHT22;14792;50.886;6.468;2022-08-21T03:23:31;13.80;99.90
27306;DHT22;14792;50.886;6.468;2022-08-21T03:26:32;13.70;99.90
27306;DHT22;14792;50.886;6.468;2022-08-21T03:29:34;13.60;99.90
27306;DHT22;14792;50.886;6.468;2022-08-21T03:32:35;13.50;99.90
27306;DHT22;14792;50.886;6.468;2022-08-21T03:35:37;13.50;99.90
27306;DHT22;14792;50.886;6.468;2022-08-21T03:38:39;13.50;99.90
27306;DHT22;14792;50.886;6.468;2022-08-21T03:41:40;13.40;99.90
27306;DHT22;14792;50.886;6.468;2022-08-21T03:44:42;13.40;99.90
27306;DHT22;14792;50.886;6.468;2022-08-21T03:50:54;13.50;99.90
27306;DHT22;14792;50.886;6.468;2022-08-21T03:53:55;13.50;99.90
27306;DHT22;14792;50.886;6.468;2022-08-21T03:56:57;13.50;99.90
27306;DHT22;14792;50.886;6.468;2022-08-21T03:59:58;13.50;99.90
27306;DHT22;14792;50.886;6.468;2022-08-21T04:03:00;13.50;99.90
27306;DHT22;14792;50.886;6.468;2022-08-21T04:06:02;13.50;99.90
27306;DHT22;14792;50.886;6.468;2022-08-21T04:09:03;13.60;99.90
27306;DHT22;14792;50.886;6.468;2022-08-21T04:12:05;13.50;99.90
27306;DHT22;14792;50.886;6.468;2022-08-21T04:15:06;13.50;99.90
27306;DHT22;14792;50.886;6.468;2022-08-21T04:18:09;13.40;99.90
27306;DHT22;14792;50.886;6.468;2022-08-21T04:21:10;13.40;99.90
27306;DHT22;14792;50.886;6.468;2022-08-21T04:24:11;13.50;99.90
27306;DHT22;14792;50.886;6.468;2022-08-21T04:27:13;13.40;99.90
27306;DHT22;14792;50.886;6.468;2022-08-21T04:30:15;13.50;99.90
27306;DHT22;14792;50.886;6.468;2022-08-21T04:33:16;13.40;99.90
27306;DHT22;14792;50.886;6.468;2022-08-21T04:36:18;13.40;99.90
27306;DHT22;14792;50.886;6.468;2022-08-21T04:39:19;13.50;99.90
27306;DHT22;14792;50.886;6.468;2022-08-21T04:42:21;13.50;99.90
27306;DHT22;14792;50.886;6.468;2022-08-21T04:45:28;13.50;99.90
27306;DHT22;14792;50.886;6.468;2022-08-21T04:48:26;13.50;99.90
27306;DHT22;14792;50.886;6.468;2022-08-21T04:51:29;13.50;99.90
27306;DHT22;14792;50.886;6.468;2022-08-21T04:54:30;13.50;99.90
27306;DHT22;14792;50.886;6.468;2022-08-21T04:57:31;13.60;99.90
27306;DHT22;14792;50.886;6.468;2022-08-21T05:00:33;13.60;99.90
27306;DHT22;14792;50.886;6.468;2022-08-21T05:03:34;13.60;99.90
27306;DHT22;14792;50.886;6.468;2022-08-21T05:06:36;13.70;99.90
27306;DHT22;14792;50.886;6.468;2022-08-21T05:09:38;13.70;99.90
27306;DHT22;14792;50.886;6.468;2022-08-21T05:12:40;13.70;99.90
27306;DHT22;14792;50.886;6.468;2022-08-21T05:15:41;13.70;99.90
27306;DHT22;14792;50.886;6.468;2022-08-21T05:18:42;13.70;99.90
27306;DHT22;14792;50.886;6.468;2022-08-21T05:21:45;13.70;99.90
27306;DHT22;14792;50.886;6.468;2022-08-21T05:24:46;13.80;99.90
27306;DHT22;14792;50.886;6.468;2022-08-21T05:27:48;13.90;99.90
27306;DHT22;14792;50.886;6.468;2022-08-21T05:30:49;13.90;99.90
27306;DHT22;14792;50.886;6.468;2022-08-21T05:33:51;13.90;99.90
27306;DHT22;14792;50.886;6.468;2022-08-21T05:36:53;13.90;99.90
27306;DHT22;14792;50.886;6.468;2022-08-21T05:39:54;14.00;99.90
27306;DHT22;14792;50.886;6.468;2022-08-21T05:42:56;14.00;99.90
27306;DHT22;14792;50.886;6.468;2022-08-21T05:45:58;14.10;99.90
27306;DHT22;14792;50.886;6.468;2022-08-21T05:48:59;14.20;99.90
27306;DHT22;14792;50.886;6.468;2022-08-21T05:52:01;14.20;99.90
27306;DHT22;14792;50.886;6.468;2022-08-21T05:55:03;14.30;99.90
27306;DHT22;14792;50.886;6.468;2022-08-21T05:58:04;14.40;99.90
27306;DHT22;14792;50.886;6.468;2022-08-21T06:01:06;14.50;99.90
27306;DHT22;14792;50.886;6.468;2022-08-21T06:04:07;14.60;99.90
27306;DHT22;14792;50.886;6.468;2022-08-21T06:07:09;14.70;99.90
27306;DHT22;14792;50.886;6.468;2022-08-21T06:10:10;14.80;99.90
27306;DHT22;14792;50.886;6.468;2022-08-21T06:13:12;14.90;99.90
27306;DHT22;14792;50.886;6.468;2022-08-21T06:16:14;15.00;99.90
27306;DHT22;14792;50.886;6.468;2022-08-21T06:19:15;15.10;99.90
27306;DHT22;14792;50.886;6.468;2022-08-21T06:22:17;15.20;99.90
27306;DHT22;14792;50.886;6.468;2022-08-21T06:25:18;15.30;99.90
27306;DHT22;14792;50.886;6.468;2022-08-21T06:28:20;15.40;99.90
27306;DHT22;14792;50.886;6.468;2022-08-21T06:31:23;15.50;99.90
27306;DHT22;14792;50.886;6.468;2022-08-21T06:34:24;15.60;99.90
27306;DHT22;14792;50.886;6.468;2022-08-21T06:37:25;15.80;99.90
27306;DHT22;14792;50.886;6.468;2022-08-21T06:40:27;16.00;99.90
27306;DHT22;14792;50.886;6.468;2022-08-21T06:43:29;16.10;99.90
27306;DHT22;14792;50.886;6.468;2022-08-21T06:46:30;16.30;99.90
27306;DHT22;14792;50.886;6.468;2022-08-21T06:49:32;16.50;99.90
27306;DHT22;14792;50.886;6.468;2022-08-21T06:52:34;16.60;99.90
27306;DHT22;14792;50.886;6.468;2022-08-21T06:55:35;16.80;99.90
27306;DHT22;14792;50.886;6.468;2022-08-21T06:58:36;17.10;99.90
27306;DHT22;14792;50.886;6.468;2022-08-21T07:01:38;17.20;99.90
27306;DHT22;14792;50.886;6.468;2022-08-21T07:04:40;17.40;99.90
27306;DHT22;14792;50.886;6.468;2022-08-21T07:07:41;17.60;99.90
27306;DHT22;14792;50.886;6.468;2022-08-21T07:10:43;17.90;99.90
27306;DHT22;14792;50.886;6.468;2022-08-21T07:13:45;18.20;99.90
27306;DHT22;14792;50.886;6.468;2022-08-21T07:16:47;18.40;99.90
27306;DHT22;14792;50.886;6.468;2022-08-21T07:19:48;18.70;99.90
27306;DHT22;14792;50.886;6.468;2022-08-21T07:22:50;18.90;99.90
27306;DHT22;14792;50.886;6.468;2022-08-21T07:25:51;19.00;99.90
27306;DHT22;14792;50.886;6.468;2022-08-21T07:28:53;19.30;99.90
27306;DHT22;14792;50.886;6.468;2022-08-21T07:31:54;19.40;99.90
27306;DHT22;14792;50.886;6.468;2022-08-21T07:34:56;19.60;99.90
27306;DHT22;14792;50.886;6.468;2022-08-21T07:37:57;19.90;99.90
27306;DHT22;14792;50.886;6.468;2022-08-21T07:41:00;20.10;99.90
27306;DHT22;14792;50.886;6.468;2022-08-21T07:44:01;20.10;99.90
27306;DHT22;14792;50.886;6.468;2022-08-21T07:47:03;20.30;99.90
27306;DHT22;14792;50.886;6.468;2022-08-21T07:50:05;20.50;99.90
27306;DHT22;14792;50.886;6.468;2022-08-21T07:53:06;20.40;99.90
27306;DHT22;14792;50.886;6.468;2022-08-21T07:56:08;20.60;99.90
27306;DHT22;14792;50.886;6.468;2022-08-21T07:59:09;20.70;99.90
27306;DHT22;14792;50.886;6.468;2022-08-21T08:02:21;20.80;99.90
27306;DHT22;14792;50.886;6.468;2022-08-21T08:05:13;20.90;99.90
27306;DHT22;14792;50.886;6.468;2022-08-21T08:08:14;21.10;99.90
27306;DHT22;14792;50.886;6.468;2022-08-21T08:11:16;21.10;99.90
27306;DHT22;14792;50.886;6.468;2022-08-21T08:14:17;21.40;99.90
27306;DHT22;14792;50.886;6.468;2022-08-21T08:17:19;21.60;99.90
27306;DHT22;14792;50.886;6.468;2022-08-21T08:20:20;21.80;99.90
27306;DHT22;14792;50.886;6.468;2022-08-21T08:23:22;22.00;99.90
27306;DHT22;14792;50.886;6.468;2022-08-21T08:26:24;21.80;99.90
27306;DHT22;14792;50.886;6.468;2022-08-21T08:29:25;21.30;99.90
27306;DHT22;14792;50.886;6.468;2022-08-21T08:32:27;21.30;99.90
27306;DHT22;14792;50.886;6.468;2022-08-21T08:35:28;21.40;99.90
27306;DHT22;14792;50.886;6.468;2022-08-21T08:38:30;21.70;99.90
27306;DHT22;14792;50.886;6.468;2022-08-21T08:41:32;21.70;99.90
27306;DHT22;14792;50.886;6.468;2022-08-21T08:44:33;22.00;99.90
27306;DHT22;14792;50.886;6.468;2022-08-21T08:47:37;22.10;99.90
27306;DHT22;14792;50.886;6.468;2022-08-21T08:50:49;22.20;99.90
27306;DHT22;14792;50.886;6.468;2022-08-21T08:54:01;22.20;99.90
27306;DHT22;14792;50.886;6.468;2022-08-21T08:57:02;22.40;99.90
27306;DHT22;14792;50.886;6.468;2022-08-21T09:00:05;22.50;99.90
27306;DHT22;14792;50.886;6.468;2022-08-21T09:03:05;22.70;99.90
27306;DHT22;14792;50.886;6.468;2022-08-21T09:06:34;22.80;99.90
27306;DHT22;14792;50.886;6.468;2022-08-21T09:13:19;23.00;99.90
27306;DHT22;14792;50.886;6.468;2022-08-21T09:20:19;23.10;99.90
27306;DHT22;14792;50.886;6.468;2022-08-21T09:26:27;23.30;99.90
27306;DHT22;14792;50.886;6.468;2022-08-21T09:29:27;23.30;99.90
27306;DHT22;14792;50.886;6.468;2022-08-21T09:32:30;23.50;99.90
27306;DHT22;14792;50.886;6.468;2022-08-21T09:35:30;24.20;99.90
27306;DHT22;14792;50.886;6.468;2022-08-21T09:38:33;24.30;99.90
27306;DHT22;14792;50.886;6.468;2022-08-21T09:41:34;23.90;99.90
27306;DHT22;14792;50.886;6.468;2022-08-21T09:44:39;23.50;99.90
27306;DHT22;14792;50.886;6.468;2022-08-21T09:47:42;23.90;99.90
27306;DHT22;14792;50.886;6.468;2022-08-21T09:50:44;23.60;99.90
27306;DHT22;14792;50.886;6.468;2022-08-21T09:53:47;23.50;99.90
27306;DHT22;14792;50.886;6.468;2022-08-21T10:00:32;23.40;99.90
27306;DHT22;14792;50.886;6.468;2022-08-21T10:03:32;23.40;99.90
27306;DHT22;14792;50.886;6.468;2022-08-21T10:06:34;23.50;99.90
27306;DHT22;14792;50.886;6.468;2022-08-21T10:09:39;23.60;99.90
27306;DHT22;14792;50.886;6.468;2022-08-21T10:13:29;23.50;99.90
27306;DHT22;14792;50.886;6.468;2022-08-21T10:22:42;23.60;99.90
27306;DHT22;14792;50.886;6.468;2022-08-21T10:25:52;23.60;99.90
27306;DHT22;14792;50.886;6.468;2022-08-21T10:31:58;23.40;99.90
27306;DHT22;14792;50.886;6.468;2022-08-21T10:35:08;23.60;99.90
27306;DHT22;14792;50.886;6.468;2022-08-21T10:41:48;23.60;99.90
27306;DHT22;14792;50.886;6.468;2022-08-21T10:45:01;23.40;99.90
27306;DHT22;14792;50.886;6.468;2022-08-21T10:48:02;23.40;99.90
27306;DHT22;14792;50.886;6.468;2022-08-21T10:51:06;23.40;99.90
27306;DHT22;14792;50.886;6.468;2022-08-21T10:54:39;23.50;99.90
27306;DHT22;14792;50.886;6.468;2022-08-21T10:57:54;23.40;99.90
27306;DHT22;14792;50.886;6.468;2022-08-21T11:00:58;23.60;99.90
27306;DHT22;14792;50.886;6.468;2022-08-21T11:07:14;23.90;99.90
27306;DHT22;14792;50.886;6.468;2022-08-21T11:10:20;23.80;99.90
27306;DHT22;14792;50.886;6.468;2022-08-21T11:13:57;24.00;99.90
27306;DHT22;14792;50.886;6.468;2022-08-21T11:16:42;24.00;99.90
27306;DHT22;14792;50.886;6.468;2022-08-21T11:20:05;24.00;99.90
27306;DHT22;14792;50.886;6.468;2022-08-21T11:26:59;24.00;99.90
27306;DHT22;14792;50.886;6.468;2022-08-21T11:39:22;24.00;99.90
27306;DHT22;14792;50.886;6.468;2022-08-21T11:45:39;24.20;99.90
27306;DHT22;14792;50.886;6.468;2022-08-21T11:48:59;24.10;99.90
27306;DHT22;14792;50.886;6.468;2022-08-21T11:52:23;24.30;99.90
27306;DHT22;14792;50.886;6.468;2022-08-21T11:55:41;24.30;99.90
27306;DHT22;14792;50.886;6.468;2022-08-21T11:58:54;24.40;99.90
27306;DHT22;14792;50.886;6.468;2022-08-21T12:01:54;24.50;99.90
27306;DHT22;14792;50.886;6.468;2022-08-21T12:04:57;24.60;99.90
27306;DHT22;14792;50.886;6.468;2022-08-21T12:08:05;24.40;99.90
27306;DHT22;14792;50.886;6.468;2022-08-21T12:14:17;24.60;99.90
27306;DHT22;14792;50.886;6.468;2022-08-21T12:17:18;24.50;99.90
27306;DHT22;14792;50.886;6.468;2022-08-21T12:23:34;24.70;99.90
27306;DHT22;14792;50.886;6.468;2022-08-21T12:26:35;24.70;99.90
27306;DHT22;14792;50.886;6.468;2022-08-21T12:29:36;24.90;99.90
27306;DHT22;14792;50.886;6.468;2022-08-21T12:32:45;24.90;99.90
27306;DHT22;14792;50.886;6.468;2022-08-21T12:35:45;25.00;99.90
27306;DHT22;14792;50.886;6.468;2022-08-21T12:38:56;24.80;99.90
27306;DHT22;14792;50.886;6.468;2022-08-21T12:45:00;24.80;99.90
27306;DHT22;14792;50.886;6.468;2022-08-21T12:48:07;25.10;99.90
27306;DHT22;14792;50.886;6.468;2022-08-21T12:54:21;25.10;99.90
27306;DHT22;14792;50.886;6.468;2022-08-21T12:57:23;25.30;99.90
27306;DHT22;14792;50.886;6.468;2022-08-21T13:00:22;25.60;99.90
27306;DHT22;14792;50.886;6.468;2022-08-21T13:03:22;25.70;99.90
27306;DHT22;14792;50.886;6.468;2022-08-21T13:06:24;25.80;99.90
27306;DHT22;14792;50.886;6.468;2022-08-21T13:09:27;25.90;99.90
27306;DHT22;14792;50.886;6.468;2022-08-21T13:12:27;26.30;99.90
27306;DHT22;14792;50.886;6.468;2022-08-21T13:15:32;26.60;99.90
27306;DHT22;14792;50.886;6.468;2022-08-21T13:18:34;26.70;99.90
27306;DHT22;14792;50.886;6.468;2022-08-21T13:21:39;26.50;99.90
27306;DHT22;14792;50.886;6.468;2022-08-21T13:24:36;26.20;99.90
27306;DHT22;14792;50.886;6.468;2022-08-21T13:27:37;25.90;99.90
27306;DHT22;14792;50.886;6.468;2022-08-21T13:30:49;26.00;99.90
27306;DHT22;14792;50.886;6.468;2022-08-21T13:33:47;26.00;99.90
27306;DHT22;14792;50.886;6.468;2022-08-21T13:36:50;25.90;99.90
27306;DHT22;14792;50.886;6.468;2022-08-21T13:39:56;26.10;99.90
27306;DHT22;14792;50.886;6.468;2022-08-21T13:42:57;26.30;99.90
27306;DHT22;14792;50.886;6.468;2022-08-21T13:46:00;26.30;99.90
27306;DHT22;14792;50.886;6.468;2022-08-21T13:49:02;26.30;99.90
27306;DHT22;14792;50.886;6.468;2022-08-21T13:52:03;26.50;99.90
27306;DHT22;14792;50.886;6.468;2022-08-21T13:55:08;26.40;99.90
27306;DHT22;14792;50.886;6.468;2022-08-21T13:58:10;26.00;99.90
27306;DHT22;14792;50.886;6.468;2022-08-21T14:01:18;25.90;99.90
27306;DHT22;14792;50.886;6.468;2022-08-21T14:04:30;25.60;99.90
27306;DHT22;14792;50.886;6.468;2022-08-21T14:07:35;25.50;99.90
27306;DHT22;14792;50.886;6.468;2022-08-21T14:10:42;25.20;99.90
27306;DHT22;14792;50.886;6.468;2022-08-21T14:13:44;25.30;99.90
27306;DHT22;14792;50.886;6.468;2022-08-21T14:16:43;25.30;99.90
27306;DHT22;14792;50.886;6.468;2022-08-21T14:19:45;25.00;99.90
27306;DHT22;14792;50.886;6.468;2022-08-21T14:22:49;24.90;99.90
27306;DHT22;14792;50.886;6.468;2022-08-21T14:25:50;24.80;99.90
27306;DHT22;14792;50.886;6.468;2022-08-21T14:28:51;24.60;99.90
27306;DHT22;14792;50.886;6.468;2022-08-21T14:31:56;24.60;99.90
27306;DHT22;14792;50.886;6.468;2022-08-21T14:34:57;24.50;99.90
27306;DHT22;14792;50.886;6.468;2022-08-21T14:37:59;24.30;99.90
27306;DHT22;14792;50.886;6.468;2022-08-21T14:41:04;24.30;99.90
27306;DHT22;14792;50.886;6.468;2022-08-21T14:44:03;24.30;99.90
27306;DHT22;14792;50.886;6.468;2022-08-21T14:47:04;24.30;99.90
27306;DHT22;14792;50.886;6.468;2022-08-21T14:50:06;24.30;99.90
27306;DHT22;14792;50.886;6.468;2022-08-21T14:53:07;24.30;99.90
27306;DHT22;14792;50.886;6.468;2022-08-21T14:56:10;24.30;99.90
27306;DHT22;14792;50.886;6.468;2022-08-21T14:59:12;24.40;99.90
27306;DHT22;14792;50.886;6.468;2022-08-21T15:02:13;24.50;99.90
27306;DHT22;14792;50.886;6.468;2022-08-21T15:05:15;24.50;99.90
27306;DHT22;14792;50.886;6.468;2022-08-21T15:08:17;24.60;99.90
27306;DHT22;14792;50.886;6.468;2022-08-21T15:11:19;24.70;99.50
27306;DHT22;14792;50.886;6.468;2022-08-21T15:14:21;24.80;98.20
27306;DHT22;14792;50.886;6.468;2022-08-21T15:17:21;24.80;97.10
27306;DHT22;14792;50.886;6.468;2022-08-21T15:20:23;25.00;95.60
27306;DHT22;14792;50.886;6.468;2022-08-21T15:23:25;25.00;96.00
27306;DHT22;14792;50.886;6.468;2022-08-21T15:26:26;25.20;97.20
27306;DHT22;14792;50.886;6.468;2022-08-21T15:29:29;25.40;97.40
27306;DHT22;14792;50.886;6.468;2022-08-21T15:32:30;25.60;98.30
27306;DHT22;14792;50.886;6.468;2022-08-21T15:35:32;25.70;97.70
27306;DHT22;14792;50.886;6.468;2022-08-21T15:38:34;25.70;97.10
27306;DHT22;14792;50.886;6.468;2022-08-21T15:41:35;25.70;99.90
27306;DHT22;14792;50.886;6.468;2022-08-21T15:44:37;25.70;98.10
27306;DHT22;14792;50.886;6.468;2022-08-21T15:47:42;25.70;97.40
27306;DHT22;14792;50.886;6.468;2022-08-21T15:50:41;25.70;96.80
27306;DHT22;14792;50.886;6.468;2022-08-21T15:53:43;25.70;96.70
27306;DHT22;14792;50.886;6.468;2022-08-21T15:56:45;25.80;96.20
27306;DHT22;14792;50.886;6.468;2022-08-21T15:59:50;25.50;97.10
27306;DHT22;14792;50.886;6.468;2022-08-21T16:02:54;25.50;98.80
27306;DHT22;14792;50.886;6.468;2022-08-21T16:05:52;25.50;97.50
27306;DHT22;14792;50.886;6.468;2022-08-21T16:08:54;25.40;97.70
27306;DHT22;14792;50.886;6.468;2022-08-21T16:11:56;25.30;98.90
27306;DHT22;14792;50.886;6.468;2022-08-21T16:14:58;25.20;97.80
27306;DHT22;14792;50.886;6.468;2022-08-21T16:17:59;25.10;97.70
27306;DHT22;14792;50.886;6.468;2022-08-21T16:21:01;24.80;99.10
27306;DHT22;14792;50.886;6.468;2022-08-21T16:24:02;24.80;98.00
27306;DHT22;14792;50.886;6.468;2022-08-21T16:27:04;24.70;99.90
27306;DHT22;14792;50.886;6.468;2022-08-21T16:30:06;24.70;99.30
27306;DHT22;14792;50.886;6.468;2022-08-21T16:33:07;24.50;99.90
27306;DHT22;14792;50.886;6.468;2022-08-21T16:36:09;24.40;99.90
27306;DHT22;14792;50.886;6.468;2022-08-21T16:39:10;24.50;99.90
27306;DHT22;14792;50.886;6.468;2022-08-21T16:42:22;24.40;99.90
27306;DHT22;14792;50.886;6.468;2022-08-21T16:45:15;24.30;99.90
27306;DHT22;14792;50.886;6.468;2022-08-21T16:48:16;24.30;99.90
27306;DHT22;14792;50.886;6.468;2022-08-21T16:51:17;24.20;99.90
27306;DHT22;14792;50.886;6.468;2022-08-21T16:54:19;24.00;99.90
27306;DHT22;14792;50.886;6.468;2022-08-21T16:57:21;24.00;99.90
27306;DHT22;14792;50.886;6.468;2022-08-21T17:00:23;24.00;99.90
27306;DHT22;14792;50.886;6.468;2022-08-21T17:03:35;23.90;99.90
27306;DHT22;14792;50.886;6.468;2022-08-21T17:06:35;23.90;99.90
27306;DHT22;14792;50.886;6.468;2022-08-21T17:09:36;23.80;99.90
27306;DHT22;14792;50.886;6.468;2022-08-21T17:12:39;23.70;99.90
27306;DHT22;14792;50.886;6.468;2022-08-21T17:15:40;23.60;99.90
27306;DHT22;14792;50.886;6.468;2022-08-21T17:18:41;23.50;99.90
27306;DHT22;14792;50.886;6.468;2022-08-21T17:21:43;23.40;99.90
27306;DHT22;14792;50.886;6.468;2022-08-21T17:24:45;23.40;99.90
27306;DHT22;14792;50.886;6.468;2022-08-21T17:27:47;23.30;99.90
27306;DHT22;14792;50.886;6.468;2022-08-21T17:30:48;23.20;99.90
27306;DHT22;14792;50.886;6.468;2022-08-21T17:33:50;23.20;99.90
27306;DHT22;14792;50.886;6.468;2022-08-21T17:36:51;23.10;99.90
27306;DHT22;14792;50.886;6.468;2022-08-21T17:39:54;23.10;99.90
27306;DHT22;14792;50.886;6.468;2022-08-21T17:42:55;23.00;99.90
27306;DHT22;14792;50.886;6.468;2022-08-21T17:45:57;22.90;99.90
27306;DHT22;14792;50.886;6.468;2022-08-21T17:48:58;23.00;99.90
27306;DHT22;14792;50.886;6.468;2022-08-21T17:52:01;22.90;99.90
27306;DHT22;14792;50.886;6.468;2022-08-21T17:55:04;22.90;99.90
27306;DHT22;14792;50.886;6.468;2022-08-21T17:58:06;22.70;99.90
27306;DHT22;14792;50.886;6.468;2022-08-21T18:01:07;22.60;99.90
27306;DHT22;14792;50.886;6.468;2022-08-21T18:04:09;22.60;99.90
27306;DHT22;14792;50.886;6.468;2022-08-21T18:07:10;22.50;99.90
27306;DHT22;14792;50.886;6.468;2022-08-21T18:10:12;22.40;99.90
27306;DHT22;14792;50.886;6.468;2022-08-21T18:13:16;22.40;99.90
27306;DHT22;14792;50.886;6.468;2022-08-21T18:16:15;22.30;99.90
27306;DHT22;14792;50.886;6.468;2022-08-21T18:19:17;22.20;99.90
27306;DHT22;14792;50.886;6.468;2022-08-21T18:22:18;22.10;99.90
27306;DHT22;14792;50.886;6.468;2022-08-21T18:25:20;22.00;99.90
27306;DHT22;14792;50.886;6.468;2022-08-21T18:28:22;22.00;99.90
27306;DHT22;14792;50.886;6.468;2022-08-21T18:31:24;21.90;99.90
27306;DHT22;14792;50.886;6.468;2022-08-21T18:34:28;21.80;99.90
27306;DHT22;14792;50.886;6.468;2022-08-21T18:37:29;21.80;99.90
27306;DHT22;14792;50.886;6.468;2022-08-21T18:40:31;21.70;99.90
27306;DHT22;14792;50.886;6.468;2022-08-21T18:43:32;21.70;99.90
27306;DHT22;14792;50.886;6.468;2022-08-21T18:46:34;21.60;99.90
27306;DHT22;14792;50.886;6.468;2022-08-21T18:49:36;21.60;99.90
27306;DHT22;14792;50.886;6.468;2022-08-21T18:52:37;21.50;99.90
27306;DHT22;14792;50.886;6.468;2022-08-21T18:55:39;21.40;99.90
27306;DHT22;14792;50.886;6.468;2022-08-21T18:58:40;21.40;99.90
27306;DHT22;14792;50.886;6.468;2022-08-21T19:01:42;21.30;99.90
27306;DHT22;14792;50.886;6.468;2022-08-21T19:04:43;21.30;99.90
27306;DHT22;14792;50.886;6.468;2022-08-21T19:07:45;21.20;99.90
27306;DHT22;14792;50.886;6.468;2022-08-21T19:10:47;21.10;99.90
27306;DHT22;14792;50.886;6.468;2022-08-21T19:13:48;21.00;99.90
27306;DHT22;14792;50.886;6.468;2022-08-21T19:16:50;21.00;99.90
27306;DHT22;14792;50.886;6.468;2022-08-21T19:19:52;21.00;99.90
27306;DHT22;14792;50.886;6.468;2022-08-21T19:22:54;20.90;99.90
27306;DHT22;14792;50.886;6.468;2022-08-21T19:25:55;20.90;99.90
27306;DHT22;14792;50.886;6.468;2022-08-21T19:28:58;20.90;99.90
27306;DHT22;14792;50.886;6.468;2022-08-21T19:31:58;20.80;99.90
27306;DHT22;14792;50.886;6.468;2022-08-21T19:34:59;20.70;99.90
27306;DHT22;14792;50.886;6.468;2022-08-21T19:38:01;20.70;99.90
27306;DHT22;14792;50.886;6.468;2022-08-21T19:41:03;20.70;99.90
27306;DHT22;14792;50.886;6.468;2022-08-21T19:44:05;20.60;99.90
27306;DHT22;14792;50.886;6.468;2022-08-21T19:47:15;20.60;99.90
27306;DHT22;14792;50.886;6.468;2022-08-21T19:50:16;20.50;99.90
27306;DHT22;14792;50.886;6.468;2022-08-21T19:53:18;20.40;99.90
27306;DHT22;14792;50.886;6.468;2022-08-21T19:56:20;20.40;99.90
27306;DHT22;14792;50.886;6.468;2022-08-21T19:59:21;20.40;99.90
27306;DHT22;14792;50.886;6.468;2022-08-21T20:02:22;20.30;99.90
27306;DHT22;14792;50.886;6.468;2022-08-21T20:05:24;20.20;99.90
27306;DHT22;14792;50.886;6.468;2022-08-21T20:08:25;20.20;99.90
27306;DHT22;14792;50.886;6.468;2022-08-21T20:11:32;20.20;99.90
27306;DHT22;14792;50.886;6.468;2022-08-21T20:14:29;20.20;99.90